createdAt,value
2017-10-20T00:00:16.646Z,91.36
2017-10-20T00:01:16.992Z,91.55
2017-10-20T00:02:16.635Z,91.36
2017-10-20T00:03:16.961Z,91.36
2017-10-20T00:04:16.959Z,90.98
2017-10-20T00:05:16.604Z,90.41
2017-10-20T00:06:16.944Z,90.98
2017-10-20T00:07:16.587Z,89.26
2017-10-20T00:08:16.583Z,89.45
2017-10-20T00:09:16.575Z,89.36
2017-10-20T00:10:16.955Z,89.17
2017-10-20T00:11:16.901Z,88.12
2017-10-20T00:12:16.893Z,88.12
2017-10-20T00:13:16.544Z,87.74
2017-10-20T00:14:16.876Z,87.35
2017-10-20T00:15:16.523Z,86.59
2017-10-20T00:16:16.515Z,86.4
2017-10-20T00:17:16.510Z,85.93
2017-10-20T00:18:16.499Z,85.73
2017-10-20T00:19:16.496Z,85.35
2017-10-20T00:20:16.847Z,85.06
2017-10-20T00:21:16.477Z,85.16
2017-10-20T00:22:16.811Z,84.88
2017-10-20T00:23:16.802Z,84.2
2017-10-20T00:24:16.452Z,84.01
2017-10-20T00:25:16.447Z,84.2
2017-10-20T00:26:16.433Z,83.44
2017-10-20T00:27:16.433Z,83.06
2017-10-20T00:28:16.425Z,82.68
2017-10-20T00:29:16.411Z,83.44
2017-10-20T00:30:16.404Z,84.11
2017-10-20T00:31:16.754Z,83.35
2017-10-20T00:32:16.383Z,83.25
2017-10-20T00:33:16.391Z,84.11
2017-10-20T00:34:16.707Z,83.25
2017-10-20T00:35:16.359Z,83.64
2017-10-20T00:36:16.352Z,82.68
2017-10-20T00:37:16.705Z,81.92
2017-10-20T00:38:16.335Z,82.07
2017-10-20T00:39:16.673Z,81.68
2017-10-20T00:40:16.661Z,81.73
2017-10-20T00:41:16.311Z,82.2
2017-10-20T00:42:16.304Z,82.26
2017-10-20T00:43:16.691Z,82.54
2017-10-20T00:44:16.288Z,83.21
2017-10-20T00:45:16.626Z,82.83
2017-10-20T00:46:16.610Z,82.78
2017-10-20T00:47:16.261Z,83.06
2017-10-20T00:48:16.591Z,82.68
2017-10-20T00:49:16.587Z,82.11
2017-10-20T00:50:16.237Z,82.87
2017-10-20T00:51:16.574Z,83.06
2017-10-20T00:52:16.586Z,82.17
2017-10-20T00:53:16.555Z,83.16
2017-10-20T00:54:16.248Z,83.35
2017-10-20T00:55:16.530Z,82.78
2017-10-20T00:56:16.199Z,83.54
2017-10-20T00:57:16.177Z,82.78
2017-10-20T00:58:16.506Z,82.78
2017-10-20T00:59:16.509Z,82.87
2017-10-20T01:00:16.152Z,83.06
2017-10-20T01:01:16.486Z,83.64
2017-10-20T01:02:16.134Z,83.64
2017-10-20T01:03:16.124Z,83.83
2017-10-20T01:04:16.467Z,84.59
2017-10-20T01:05:16.113Z,86.02
2017-10-20T01:06:16.121Z,86.4
2017-10-20T01:07:16.090Z,86.11
2017-10-20T01:08:16.088Z,86.11
2017-10-20T01:09:16.418Z,85.45
2017-10-20T01:10:16.067Z,85.93
2017-10-20T01:11:16.059Z,85.45
2017-10-20T01:12:16.052Z,85.25
2017-10-20T01:13:16.061Z,85.35
2017-10-20T01:14:16.375Z,84.97
2017-10-20T01:15:16.382Z,84.2
2017-10-20T01:16:16.068Z,84.2
2017-10-20T01:17:16.355Z,83.83
2017-10-20T01:18:16.204Z,83.44
2017-10-20T01:19:15.990Z,83.64
2017-10-20T01:20:16.327Z,82.68
2017-10-20T01:21:15.973Z,82.11
2017-10-20T01:22:15.973Z,81.73
2017-10-20T01:23:15.958Z,81.06
2017-10-20T01:24:16.301Z,80.49
2017-10-20T01:25:16.283Z,80.35
2017-10-20T01:26:16.276Z,80.64
2017-10-20T01:27:15.944Z,81.21
2017-10-20T01:28:16.294Z,80.64
2017-10-20T01:29:15.944Z,81.59
2017-10-20T01:30:15.918Z,82.3
2017-10-20T01:31:15.897Z,81.06
2017-10-20T01:32:15.884Z,79.35
2017-10-20T01:33:16.220Z,81.21
2017-10-20T01:34:15.871Z,81.21
2017-10-20T01:35:16.203Z,81.68
2017-10-20T01:36:15.848Z,81.35
2017-10-20T01:37:15.842Z,81.06
2017-10-20T01:38:15.838Z,80.77
2017-10-20T01:39:15.826Z,79.72
2017-10-20T01:40:16.159Z,79.82
2017-10-20T01:41:15.811Z,79.35
2017-10-20T01:42:15.820Z,79.63
2017-10-20T01:43:15.799Z,79.82
2017-10-20T01:44:16.123Z,79.44
2017-10-20T01:45:15.775Z,79.44
2017-10-20T01:46:15.764Z,78.67
2017-10-20T01:47:16.104Z,78.92
2017-10-20T01:48:15.761Z,78.92
2017-10-20T01:49:15.789Z,78.64
2017-10-20T01:50:15.731Z,78.77
2017-10-20T01:51:16.074Z,79.21
2017-10-20T01:52:15.719Z,80.2
2017-10-20T01:53:16.047Z,80.26
2017-10-20T01:54:15.699Z,79.91
2017-10-20T01:55:15.689Z,79.78
2017-10-20T01:56:16.024Z,79.88
2017-10-20T01:57:15.673Z,80.26
2017-10-20T01:58:15.680Z,80.2
2017-10-20T01:59:15.656Z,79.44
2017-10-20T02:00:15.697Z,79.11
2017-10-20T02:01:15.639Z,79.3
2017-10-20T02:02:15.971Z,77.87
2017-10-20T02:03:15.623Z,78.54
2017-10-20T02:04:16.180Z,78.83
2017-10-20T02:05:15.967Z,78.64
2017-10-20T02:06:15.938Z,78.44
2017-10-20T02:07:15.592Z,77.3
2017-10-20T02:08:15.583Z,77.4
2017-10-20T02:09:15.572Z,77.87
2017-10-20T02:10:15.567Z,76.73
2017-10-20T02:11:15.608Z,76.16
2017-10-20T02:12:15.558Z,75.68
2017-10-20T02:13:15.893Z,73.68
2017-10-20T02:14:15.529Z,72.16
2017-10-20T02:15:15.522Z,72.16
2017-10-20T02:16:15.513Z,72.6
2017-10-20T02:17:15.533Z,70.59
2017-10-20T02:18:15.495Z,71.45
2017-10-20T02:19:15.503Z,71.55
2017-10-20T02:20:15.819Z,72.92
2017-10-20T02:21:15.473Z,71.73
2017-10-20T02:22:15.459Z,70.63
2017-10-20T02:23:15.494Z,70.44
2017-10-20T02:24:15.447Z,70.4
2017-10-20T02:25:15.434Z,70.4
2017-10-20T02:26:15.766Z,67.93
2017-10-20T02:27:15.419Z,68.4
2017-10-20T02:28:15.425Z,69.17
2017-10-20T02:29:15.398Z,69.26
2017-10-20T02:30:15.391Z,68.3
2017-10-20T02:31:15.413Z,68.12
2017-10-20T02:32:15.720Z,68.3
2017-10-20T02:33:15.367Z,66.5
2017-10-20T02:34:15.705Z,65.92
2017-10-20T02:35:15.348Z,65.73
2017-10-20T02:36:15.338Z,64.5
2017-10-20T02:37:15.342Z,64.59
2017-10-20T02:38:15.324Z,62.49
2017-10-20T02:39:15.518Z,63.07
2017-10-20T02:40:15.660Z,61.93
2017-10-20T02:41:15.297Z,61.45
2017-10-20T02:42:15.289Z,61.64
2017-10-20T02:43:15.277Z,61.54
2017-10-20T02:44:15.610Z,61.35
2017-10-20T02:45:15.624Z,60.97
2017-10-20T02:46:15.254Z,59.45
2017-10-20T02:47:15.246Z,59.26
2017-10-20T02:48:15.242Z,59.06
2017-10-20T02:49:15.586Z,59.35
2017-10-20T02:50:15.556Z,58.78
2017-10-20T02:51:15.551Z,58.78
2017-10-20T02:52:15.197Z,57.35
2017-10-20T02:53:15.193Z,57.42
2017-10-20T02:54:15.185Z,55.8
2017-10-20T02:55:15.223Z,57.26
2017-10-20T02:56:15.165Z,58.3
2017-10-20T02:57:15.498Z,58.87
2017-10-20T02:58:15.491Z,60.21
2017-10-20T02:59:15.140Z,60.69
2017-10-20T03:00:15.475Z,61.25
2017-10-20T03:01:15.119Z,61.25
2017-10-20T03:02:15.112Z,60.97
2017-10-20T03:03:15.472Z,62.3
2017-10-20T03:04:15.099Z,63.83
2017-10-20T03:05:15.083Z,63.26
2017-10-20T03:06:15.077Z,63.54
2017-10-20T03:07:15.068Z,63.35
2017-10-20T03:08:15.065Z,63.45
2017-10-20T03:09:15.057Z,64.87
2017-10-20T03:10:15.039Z,63.73
2017-10-20T03:11:15.033Z,64.4
2017-10-20T03:12:15.033Z,65.73
2017-10-20T03:13:15.013Z,65.64
2017-10-20T03:14:15.008Z,65.36
2017-10-20T03:15:14.998Z,65.36
2017-10-20T03:16:14.990Z,65.73
2017-10-20T03:17:14.980Z,66.21
2017-10-20T03:18:14.978Z,65.26
2017-10-20T03:19:14.978Z,66.11
2017-10-20T03:20:14.949Z,66.21
2017-10-20T03:21:14.945Z,66.88
2017-10-20T03:22:14.949Z,66.5
2017-10-20T03:23:14.930Z,65.16
2017-10-20T03:24:14.917Z,64.69
2017-10-20T03:25:14.907Z,64.4
2017-10-20T03:26:14.921Z,64.02
2017-10-20T03:27:15.227Z,64.18
2017-10-20T03:28:15.276Z,63.99
2017-10-20T03:29:15.214Z,63.23
2017-10-20T03:30:15.211Z,63.13
2017-10-20T03:31:14.852Z,61.32
2017-10-20T03:32:14.843Z,61.7
2017-10-20T03:33:15.173Z,60.94
2017-10-20T03:34:14.897Z,61.32
2017-10-20T03:35:14.814Z,61.32
2017-10-20T03:36:14.812Z,61.8
2017-10-20T03:37:14.799Z,61.32
2017-10-20T03:38:14.788Z,60.27
2017-10-20T03:39:14.891Z,62.18
2017-10-20T03:40:14.777Z,62.75
2017-10-20T03:41:14.827Z,62.65
2017-10-20T03:42:14.751Z,61.22
2017-10-20T03:43:14.744Z,61.8
2017-10-20T03:44:14.733Z,63.23
2017-10-20T03:45:15.072Z,65.03
2017-10-20T03:46:15.060Z,63.89
2017-10-20T03:47:14.707Z,66.08
2017-10-20T03:48:14.697Z,66.75
2017-10-20T03:49:15.031Z,67.61
2017-10-20T03:50:15.022Z,67.61
2017-10-20T03:51:15.019Z,68.46
2017-10-20T03:52:14.661Z,68.08
2017-10-20T03:53:14.673Z,67.99
2017-10-20T03:54:14.644Z,68.84
2017-10-20T03:55:14.635Z,69.79
2017-10-20T03:56:14.963Z,70.65
2017-10-20T03:57:14.613Z,70.56
2017-10-20T03:58:14.950Z,71.03
2017-10-20T03:59:14.611Z,71.8
2017-10-20T04:00:14.587Z,71.64
2017-10-20T04:01:14.578Z,72.37
2017-10-20T04:02:14.570Z,72.97
2017-10-20T04:03:14.904Z,73.45
2017-10-20T04:04:14.550Z,73.83
2017-10-20T04:05:14.569Z,74.02
2017-10-20T04:06:14.532Z,74.69
2017-10-20T04:07:14.533Z,74.12
2017-10-20T04:08:14.520Z,73.17
2017-10-20T04:09:14.506Z,73.26
2017-10-20T04:10:14.494Z,73.13
2017-10-20T04:11:14.486Z,76.65
2017-10-20T04:12:14.482Z,75.89
2017-10-20T04:13:14.469Z,76.5
2017-10-20T04:14:14.804Z,76.5
2017-10-20T04:15:14.448Z,75.45
2017-10-20T04:16:14.441Z,76.88
2017-10-20T04:17:14.446Z,80.02
2017-10-20T04:18:14.424Z,80.98
2017-10-20T04:19:14.423Z,82.79
2017-10-20T04:20:14.745Z,81.55
2017-10-20T04:21:14.735Z,82.79
2017-10-20T04:22:14.390Z,83.55
2017-10-20T04:23:14.377Z,83.65
2017-10-20T04:24:14.710Z,82.12
2017-10-20T04:25:14.357Z,83.26
2017-10-20T04:26:14.356Z,82.79
2017-10-20T04:27:14.342Z,82.21
2017-10-20T04:28:14.335Z,82.89
2017-10-20T04:29:14.322Z,82.98
2017-10-20T04:30:14.329Z,81.93
2017-10-20T04:31:14.305Z,82.31
2017-10-20T04:32:14.297Z,81.36
2017-10-20T04:33:14.331Z,81.36
2017-10-20T04:34:14.281Z,82.69
2017-10-20T04:35:14.294Z,83.07
2017-10-20T04:36:14.262Z,82.03
2017-10-20T04:37:14.259Z,82.79
2017-10-20T04:38:14.589Z,83.36
2017-10-20T04:39:14.577Z,84.12
2017-10-20T04:40:14.566Z,83.36
2017-10-20T04:41:14.563Z,82.31
2017-10-20T04:42:14.554Z,83.65
2017-10-20T04:43:14.202Z,84.69
2017-10-20T04:44:14.535Z,84.69
2017-10-20T04:45:14.183Z,84.03
2017-10-20T04:46:14.173Z,83.69
2017-10-20T04:47:14.176Z,84.79
2017-10-20T04:48:14.156Z,85.78
2017-10-20T04:49:14.492Z,86.07
2017-10-20T04:50:14.139Z,85.41
2017-10-20T04:51:14.473Z,87.98
2017-10-20T04:52:14.457Z,87.79
2017-10-20T04:53:14.110Z,86.07
2017-10-20T04:54:14.102Z,87.21
2017-10-20T04:55:14.435Z,88.45
2017-10-20T04:56:14.424Z,88.64
2017-10-20T04:57:14.076Z,90.45
2017-10-20T04:58:14.064Z,90.26
2017-10-20T04:59:14.055Z,92.46
2017-10-20T05:00:14.388Z,92.36
2017-10-20T05:01:14.382Z,93.22
2017-10-20T05:02:14.032Z,93.32
2017-10-20T05:03:14.366Z,93.41
2017-10-20T05:04:14.357Z,94.46
2017-10-20T05:05:14.006Z,96.36
2017-10-20T05:06:13.995Z,96.13
2017-10-20T05:07:14.328Z,95.41
2017-10-20T05:08:13.978Z,96.08
2017-10-20T05:09:14.315Z,95.37
2017-10-20T05:10:14.323Z,94.79
2017-10-20T05:11:13.953Z,95.56
2017-10-20T05:12:14.288Z,96.46
2017-10-20T05:13:13.936Z,95.65
2017-10-20T05:14:14.270Z,95.94
2017-10-20T05:15:13.918Z,96.8
2017-10-20T05:16:13.912Z,96.51
2017-10-20T05:17:14.240Z,96.89
2017-10-20T05:18:13.906Z,97.17
2017-10-20T05:19:14.226Z,97.17
2017-10-20T05:20:13.878Z,96.89
2017-10-20T05:21:14.219Z,97.17
2017-10-20T05:22:13.858Z,98.13
2017-10-20T05:23:13.851Z,97.56
2017-10-20T05:24:13.841Z,97.56
2017-10-20T05:25:14.173Z,98.22
2017-10-20T05:26:13.826Z,98.42
2017-10-20T05:27:13.817Z,98.9
2017-10-20T05:28:14.166Z,99.75
2017-10-20T05:29:14.155Z,99.56
2017-10-20T05:30:13.792Z,97.75
2017-10-20T05:31:13.783Z,98.51
2017-10-20T05:32:13.800Z,99.46
2017-10-20T05:33:13.767Z,99.27
2017-10-20T05:34:13.757Z,99.99
2017-10-20T05:35:14.091Z,99.99
2017-10-20T05:36:13.742Z,99.99
2017-10-20T05:37:14.083Z,99.75
2017-10-20T05:38:13.725Z,99.99
2017-10-20T05:39:14.058Z,98.22
2017-10-20T05:40:14.047Z,99.18
2017-10-20T05:41:13.702Z,98.42
2017-10-20T05:42:14.031Z,98.8
2017-10-20T05:43:14.043Z,99.46
2017-10-20T05:44:14.017Z,98.8
2017-10-20T05:45:14.024Z,98.99
2017-10-20T05:46:14.035Z,97.46
2017-10-20T05:47:13.690Z,96.41
2017-10-20T05:48:13.640Z,97.32
2017-10-20T05:49:13.642Z,97.27
2017-10-20T05:50:13.625Z,97.03
2017-10-20T05:51:13.615Z,96.65
2017-10-20T05:52:13.608Z,96.56
2017-10-20T05:53:13.962Z,94.74
2017-10-20T05:54:13.626Z,94.08
2017-10-20T05:55:13.923Z,94.27
2017-10-20T05:56:13.578Z,95.22
2017-10-20T05:57:13.568Z,95.03
2017-10-20T05:58:13.561Z,93.51
2017-10-20T05:59:13.553Z,92.36
2017-10-20T06:00:13.902Z,93.6
2017-10-20T06:01:13.534Z,92.27
2017-10-20T06:02:13.867Z,93.6
2017-10-20T06:03:13.515Z,93.51
2017-10-20T06:04:13.508Z,92.74
2017-10-20T06:05:13.498Z,92.55
2017-10-20T06:06:13.849Z,92.08
2017-10-20T06:07:13.479Z,93.12
2017-10-20T06:08:13.471Z,92.46
2017-10-20T06:09:13.487Z,91.88
2017-10-20T06:10:13.464Z,91.5
2017-10-20T06:11:13.465Z,89.5
2017-10-20T06:12:13.818Z,91.5
2017-10-20T06:13:13.432Z,92.36
2017-10-20T06:14:13.791Z,92.36
2017-10-20T06:15:13.777Z,92.08
2017-10-20T06:16:13.748Z,91.98
2017-10-20T06:17:13.404Z,92.36
2017-10-20T06:18:13.727Z,92.46
2017-10-20T06:19:13.379Z,93.03
2017-10-20T06:20:13.711Z,93.12
2017-10-20T06:21:13.384Z,93.51
2017-10-20T06:22:13.694Z,93.27
2017-10-20T06:23:13.345Z,95.37
2017-10-20T06:24:13.336Z,95.08
2017-10-20T06:25:13.333Z,95.27
2017-10-20T06:26:13.326Z,95.08
2017-10-20T06:27:13.651Z,96.32
2017-10-20T06:28:13.303Z,96.61
2017-10-20T06:29:13.298Z,95.84
2017-10-20T06:30:13.636Z,96.61
2017-10-20T06:31:13.287Z,96.51
2017-10-20T06:32:13.272Z,97.27
2017-10-20T06:33:13.279Z,97.75
2017-10-20T06:34:13.596Z,97.37
2017-10-20T06:35:13.245Z,97.17
2017-10-20T06:36:13.237Z,96.61
2017-10-20T06:37:13.232Z,98.37
2017-10-20T06:38:13.562Z,98.56
2017-10-20T06:39:13.556Z,99.71
2017-10-20T06:40:13.209Z,99.99
2017-10-20T06:41:13.198Z,98.66
2017-10-20T06:42:13.190Z,99.71
2017-10-20T06:43:13.185Z,99.99
2017-10-20T06:44:13.177Z,99.99
2017-10-20T06:45:13.509Z,99.99
2017-10-20T06:46:13.157Z,99.99
2017-10-20T06:47:13.172Z,99.99
2017-10-20T06:48:13.141Z,99.99
2017-10-20T06:49:13.136Z,99.99
2017-10-20T06:50:13.127Z,99.99
2017-10-20T06:51:13.119Z,99.99
2017-10-20T06:52:13.112Z,99.99
2017-10-20T06:53:13.110Z,99.99
2017-10-20T06:54:13.100Z,99.99
2017-10-20T06:55:13.427Z,99.99
2017-10-20T06:56:13.078Z,99.99
2017-10-20T06:57:13.087Z,99.99
2017-10-20T06:58:13.409Z,99.99
2017-10-20T06:59:13.055Z,99.99
2017-10-20T07:00:13.392Z,99.99
2017-10-20T07:01:13.046Z,99.99
2017-10-20T07:02:13.050Z,99.99
2017-10-20T07:03:13.029Z,99.99
2017-10-20T07:04:13.021Z,99.99
2017-10-20T07:05:13.358Z,99.99
2017-10-20T07:06:13.366Z,99.99
2017-10-20T07:07:13.334Z,99.99
2017-10-20T07:08:12.990Z,99.99
2017-10-20T07:09:13.325Z,99.99
2017-10-20T07:10:13.015Z,99.99
2017-10-20T07:11:12.965Z,99.99
2017-10-20T07:12:13.312Z,99.99
2017-10-20T07:13:12.954Z,99.99
2017-10-20T07:14:12.951Z,99.99
2017-10-20T07:15:12.939Z,99.99
2017-10-20T07:16:13.284Z,99.99
2017-10-20T07:17:12.925Z,99.99
2017-10-20T07:18:12.915Z,99.99
2017-10-20T07:19:13.252Z,99.99
2017-10-20T07:20:12.926Z,99.99
2017-10-20T07:21:13.235Z,99.99
2017-10-20T07:22:12.886Z,99.99
2017-10-20T07:23:12.882Z,99.99
2017-10-20T07:24:12.875Z,99.99
2017-10-20T07:25:12.868Z,99.99
2017-10-20T07:26:13.202Z,99.99
2017-10-20T07:27:12.852Z,99.99
2017-10-20T07:28:12.850Z,99.99
2017-10-20T07:29:12.838Z,99.99
2017-10-20T07:30:13.175Z,99.99
2017-10-20T07:31:13.166Z,99.99
2017-10-20T07:32:12.830Z,99.99
2017-10-20T07:33:12.813Z,99.99
2017-10-20T07:34:12.806Z,99.99
2017-10-20T07:35:12.799Z,99.99
2017-10-20T07:36:12.789Z,99.99
2017-10-20T07:37:13.166Z,99.99
2017-10-20T07:38:13.120Z,99.99
2017-10-20T07:39:12.770Z,99.99
2017-10-20T07:40:12.777Z,99.99
2017-10-20T07:41:13.102Z,99.99
2017-10-20T07:42:12.751Z,99.99
2017-10-20T07:43:12.745Z,99.99
2017-10-20T07:44:13.089Z,99.99
2017-10-20T07:45:12.733Z,99.99
2017-10-20T07:46:12.722Z,99.99
2017-10-20T07:47:12.719Z,99.99
2017-10-20T07:48:12.723Z,99.99
2017-10-20T07:49:13.060Z,99.99
2017-10-20T07:50:12.703Z,99.99
2017-10-20T07:51:13.029Z,99.99
2017-10-20T07:52:12.687Z,99.99
2017-10-20T07:53:12.679Z,99.99
2017-10-20T07:54:13.021Z,99.99
2017-10-20T07:55:12.669Z,99.99
2017-10-20T07:56:13.008Z,99.99
2017-10-20T07:57:12.655Z,99.99
2017-10-20T07:58:12.645Z,99.99
2017-10-20T07:59:12.644Z,99.99
2017-10-20T08:00:13.000Z,99.99
2017-10-20T08:01:12.974Z,99.99
2017-10-20T08:02:12.967Z,99.99
2017-10-20T08:03:12.959Z,99.99
2017-10-20T08:04:12.953Z,99.99
2017-10-20T08:05:12.940Z,99.99
2017-10-20T08:06:12.598Z,99.99
2017-10-20T08:07:12.590Z,99.99
2017-10-20T08:08:12.585Z,99.99
2017-10-20T08:09:12.581Z,99.99
2017-10-20T08:10:12.921Z,99.99
2017-10-20T08:11:12.568Z,99.99
2017-10-20T08:12:12.585Z,99.99
2017-10-20T08:13:12.906Z,99.99
2017-10-20T08:14:12.892Z,99.99
2017-10-20T08:15:12.543Z,99.99
2017-10-20T08:16:12.548Z,99.99
2017-10-20T08:17:12.533Z,99.99
2017-10-20T08:18:12.527Z,99.99
2017-10-20T08:19:12.518Z,99.99
2017-10-20T08:20:12.512Z,99.99
2017-10-20T08:21:12.508Z,99.99
2017-10-20T08:22:12.511Z,99.99
2017-10-20T08:23:12.521Z,99.99
2017-10-20T08:24:12.494Z,99.99
2017-10-20T08:25:12.833Z,99.99
2017-10-20T08:26:12.499Z,99.99
2017-10-20T08:27:12.473Z,99.99
2017-10-20T08:28:12.806Z,99.99
2017-10-20T08:29:12.464Z,99.99
2017-10-20T08:30:12.799Z,99.99
2017-10-20T08:31:12.453Z,99.99
2017-10-20T08:32:12.793Z,99.99
2017-10-20T08:33:12.814Z,99.99
2017-10-20T08:34:12.436Z,99.99
2017-10-20T08:35:12.432Z,99.99
2017-10-20T08:36:12.430Z,99.99
2017-10-20T08:37:12.420Z,99.99
2017-10-20T08:38:12.415Z,99.99
2017-10-20T08:39:12.750Z,99.99
2017-10-20T08:40:12.743Z,99.99
2017-10-20T08:41:12.417Z,99.99
2017-10-20T08:42:12.732Z,99.99
2017-10-20T08:43:12.391Z,99.99
2017-10-20T08:44:12.732Z,99.99
2017-10-20T08:45:12.380Z,99.99
2017-10-20T08:46:12.713Z,99.99
2017-10-20T08:47:12.710Z,99.99
2017-10-20T08:48:12.710Z,99.99
2017-10-20T08:49:12.377Z,99.99
2017-10-20T08:50:12.356Z,99.99
2017-10-20T08:51:12.347Z,99.99
2017-10-20T08:52:12.357Z,99.99
2017-10-20T08:53:12.335Z,99.99
2017-10-20T08:54:12.330Z,99.99
2017-10-20T08:55:12.327Z,99.99
2017-10-20T08:56:12.320Z,99.99
2017-10-20T08:57:12.316Z,99.99
2017-10-20T08:58:12.670Z,99.99
2017-10-20T08:59:12.305Z,99.99
2017-10-20T09:00:12.304Z,99.99
2017-10-20T09:01:12.300Z,99.99
2017-10-20T09:02:12.292Z,99.99
2017-10-20T09:03:12.289Z,99.99
2017-10-20T09:04:12.627Z,99.99
2017-10-20T09:05:12.616Z,99.99
2017-10-20T09:06:12.282Z,99.99
2017-10-20T09:07:12.635Z,99.99
2017-10-20T09:08:12.262Z,99.99
2017-10-20T09:09:12.258Z,99.99
2017-10-20T09:10:12.254Z,99.99
2017-10-20T09:11:12.251Z,99.99
2017-10-20T09:12:12.586Z,99.99
2017-10-20T09:13:12.584Z,99.99
2017-10-20T09:14:12.233Z,99.99
2017-10-20T09:15:12.235Z,99.99
2017-10-20T09:16:12.580Z,99.99
2017-10-20T09:17:12.223Z,99.99
2017-10-20T09:18:12.215Z,99.99
2017-10-20T09:19:12.562Z,99.99
2017-10-20T09:20:12.551Z,99.99
2017-10-20T09:21:12.197Z,99.99
2017-10-20T09:22:12.195Z,99.99
2017-10-20T09:23:12.189Z,99.99
2017-10-20T09:24:12.527Z,99.99
2017-10-20T09:25:12.181Z,99.99
2017-10-20T09:26:12.173Z,99.99
2017-10-20T09:27:12.194Z,99.99
2017-10-20T09:28:12.165Z,99.99
2017-10-20T09:29:12.520Z,99.99
2017-10-20T09:30:12.511Z,99.99
2017-10-20T09:31:12.491Z,99.99
2017-10-20T09:32:12.150Z,99.99
2017-10-20T09:33:12.141Z,99.99
2017-10-20T09:34:12.138Z,99.99
2017-10-20T09:35:12.142Z,99.99
2017-10-20T09:36:12.128Z,99.99
2017-10-20T09:37:12.462Z,99.99
2017-10-20T09:38:12.123Z,99.99
2017-10-20T09:39:12.458Z,99.99
2017-10-20T09:40:12.449Z,99.99
2017-10-20T09:41:12.458Z,99.99
2017-10-20T09:42:12.466Z,99.99
2017-10-20T09:43:12.099Z,99.99
2017-10-20T09:44:12.093Z,99.99
2017-10-20T09:45:12.091Z,99.99
2017-10-20T09:46:12.428Z,99.99
2017-10-20T09:47:12.425Z,99.99
2017-10-20T09:48:12.078Z,99.99
2017-10-20T09:49:12.414Z,99.99
2017-10-20T09:50:12.072Z,99.99
2017-10-20T09:51:12.672Z,99.99
2017-10-20T09:52:12.407Z,99.99
2017-10-20T09:53:12.060Z,99.99
2017-10-20T09:54:12.396Z,99.99
2017-10-20T09:55:12.057Z,99.99
2017-10-20T09:56:12.388Z,99.99
2017-10-20T09:57:12.392Z,99.99
2017-10-20T09:58:12.045Z,99.99
2017-10-20T09:59:12.042Z,99.99
2017-10-20T10:00:12.038Z,99.99
2017-10-20T10:01:12.036Z,99.99
2017-10-20T10:02:12.412Z,99.99
2017-10-20T10:03:12.028Z,99.99
2017-10-20T10:04:12.023Z,99.99
2017-10-20T10:05:12.020Z,99.99
2017-10-20T10:06:12.359Z,99.99
2017-10-20T10:07:12.371Z,99.99
2017-10-20T10:08:12.037Z,99.99
2017-10-20T10:09:12.348Z,99.99
2017-10-20T10:10:12.006Z,99.99
2017-10-20T10:11:12.003Z,99.99
2017-10-20T10:12:12.003Z,99.99
2017-10-20T10:13:12.367Z,99.99
2017-10-20T10:14:11.993Z,99.99
2017-10-20T10:15:12.334Z,99.99
2017-10-20T10:16:11.989Z,99.99
2017-10-20T10:17:11.987Z,99.99
2017-10-20T10:18:12.326Z,99.99
2017-10-20T10:19:11.989Z,99.99
2017-10-20T10:20:11.980Z,99.99
2017-10-20T10:21:11.975Z,99.99
2017-10-20T10:22:11.975Z,99.99
2017-10-20T10:23:12.310Z,99.99
2017-10-20T10:24:12.312Z,99.99
2017-10-20T10:25:11.966Z,99.99
2017-10-20T10:26:12.309Z,99.99
2017-10-20T10:27:11.961Z,99.99
2017-10-20T10:28:11.961Z,99.99
2017-10-20T10:29:12.305Z,99.99
2017-10-20T10:30:11.951Z,99.99
2017-10-20T10:31:11.961Z,99.99
2017-10-20T10:32:11.949Z,99.99
2017-10-20T10:33:11.948Z,99.99
2017-10-20T10:34:12.319Z,99.99
2017-10-20T10:35:11.940Z,99.99
2017-10-20T10:36:11.938Z,99.73
2017-10-20T10:37:11.936Z,99.99
2017-10-20T10:38:12.285Z,99.99
2017-10-20T10:39:12.273Z,99.99
2017-10-20T10:40:11.929Z,99.99
2017-10-20T10:41:11.925Z,99.99
2017-10-20T10:42:11.925Z,99.99
2017-10-20T10:43:11.923Z,99.99
2017-10-20T10:44:11.922Z,99.99
2017-10-20T10:45:12.265Z,99.99
2017-10-20T10:46:12.260Z,99.99
2017-10-20T10:47:11.915Z,99.99
2017-10-20T10:48:11.926Z,99.99
2017-10-20T10:49:11.916Z,99.99
2017-10-20T10:50:12.252Z,99.99
2017-10-20T10:51:11.919Z,99.99
2017-10-20T10:52:11.904Z,99.99
2017-10-20T10:53:11.899Z,99.99
2017-10-20T10:54:11.898Z,99.99
2017-10-20T10:55:12.253Z,99.99
2017-10-20T10:56:11.896Z,99.99
2017-10-20T10:57:11.896Z,99.99
2017-10-20T10:58:11.893Z,99.99
2017-10-20T10:59:11.888Z,99.99
2017-10-20T11:00:11.885Z,99.99
2017-10-20T11:01:12.253Z,99.99
2017-10-20T11:02:11.891Z,98.53
2017-10-20T11:03:11.881Z,99.58
2017-10-20T11:04:11.877Z,99.99
2017-10-20T11:05:11.875Z,99.44
2017-10-20T11:06:11.880Z,99.99
2017-10-20T11:07:11.871Z,99.99
2017-10-20T11:08:11.866Z,99.99
2017-10-20T11:09:12.205Z,99.99
2017-10-20T11:10:11.865Z,99.99
2017-10-20T11:11:12.199Z,99.99
2017-10-20T11:12:12.208Z,99.99
2017-10-20T11:13:12.213Z,99.99
2017-10-20T11:14:12.208Z,99.99
2017-10-20T11:15:11.847Z,99.99
2017-10-20T11:16:11.849Z,99.99
2017-10-20T11:17:11.843Z,99.99
2017-10-20T11:18:11.845Z,99.99
2017-10-20T11:19:12.187Z,99.99
2017-10-20T11:20:11.836Z,99.99
2017-10-20T11:21:12.174Z,99.99
2017-10-20T11:22:11.831Z,99.99
2017-10-20T11:23:12.169Z,99.99
2017-10-20T11:24:11.828Z,99.99
2017-10-20T11:25:12.166Z,99.99
2017-10-20T11:26:12.158Z,99.99
2017-10-20T11:27:11.831Z,99.99
2017-10-20T11:28:12.179Z,99.99
2017-10-20T11:29:12.159Z,99.99
2017-10-20T11:30:11.807Z,99.99
2017-10-20T11:31:11.824Z,99.99
2017-10-20T11:32:12.141Z,99.99
2017-10-20T11:33:11.795Z,99.99
2017-10-20T11:34:11.790Z,99.99
2017-10-20T11:35:11.786Z,99.99
2017-10-20T11:36:12.145Z,99.99
2017-10-20T11:37:12.121Z,99.99
2017-10-20T11:38:11.777Z,99.99
2017-10-20T11:39:12.111Z,99.99
2017-10-20T11:40:12.113Z,99.99
2017-10-20T11:41:12.123Z,99.99
2017-10-20T11:42:11.785Z,99.99
2017-10-20T11:43:11.784Z,99.99
2017-10-20T11:44:11.754Z,99.99
2017-10-20T11:45:11.750Z,99.99
2017-10-20T11:46:11.745Z,99.99
2017-10-20T11:47:11.740Z,99.99
2017-10-20T11:48:11.738Z,99.99
2017-10-20T11:49:11.733Z,99.99
2017-10-20T11:50:11.734Z,99.99
2017-10-20T11:51:11.724Z,99.99
2017-10-20T11:52:11.736Z,99.99
2017-10-20T11:53:12.054Z,99.99
2017-10-20T11:54:12.060Z,99.99
2017-10-20T11:55:12.069Z,99.99
2017-10-20T11:56:11.702Z,99.99
2017-10-20T11:57:11.699Z,99.99
2017-10-20T11:58:11.714Z,99.99
2017-10-20T11:59:11.690Z,99.99
2017-10-20T12:00:11.688Z,99.99
2017-10-20T12:01:11.712Z,99.99
2017-10-20T12:02:11.682Z,99.99
2017-10-20T12:03:11.675Z,99.99
2017-10-20T12:04:12.007Z,99.99
2017-10-20T12:05:11.663Z,99.99
2017-10-20T12:06:11.662Z,99.99
2017-10-20T12:07:17.934Z,99.99
2017-10-20T12:08:11.992Z,99.99
2017-10-20T12:09:12.007Z,99.99
2017-10-20T12:10:11.643Z,99.99
2017-10-20T12:11:11.639Z,99.99
2017-10-20T12:12:11.994Z,99.99
2017-10-20T12:13:11.630Z,99.99
2017-10-20T12:14:11.625Z,99.99
2017-10-20T12:15:11.627Z,99.99
2017-10-20T12:16:11.616Z,99.99
2017-10-20T12:17:11.647Z,99.99
2017-10-20T12:18:11.608Z,99.99
2017-10-20T12:19:11.605Z,99.99
2017-10-20T12:20:11.966Z,99.99
2017-10-20T12:21:11.938Z,99.99
2017-10-20T12:22:11.613Z,99.99
2017-10-20T12:23:11.591Z,99.99
2017-10-20T12:24:11.588Z,99.99
2017-10-20T12:25:11.674Z,99.99
2017-10-20T12:26:11.581Z,99.99
2017-10-20T12:27:11.575Z,99.99
2017-10-20T12:28:11.571Z,99.99
2017-10-20T12:29:11.570Z,99.99
2017-10-20T12:30:11.923Z,99.99
2017-10-20T12:31:11.561Z,99.99
2017-10-20T12:32:11.583Z,99.99
2017-10-20T12:33:11.895Z,99.99
2017-10-20T12:34:11.552Z,99.99
2017-10-20T12:35:11.546Z,99.99
2017-10-20T12:36:11.884Z,99.99
2017-10-20T12:37:11.876Z,99.99
2017-10-20T12:38:11.536Z,99.99
2017-10-20T12:39:11.890Z,99.99
2017-10-20T12:40:11.527Z,99.99
2017-10-20T12:41:11.864Z,99.99
2017-10-20T12:42:11.861Z,99.99
2017-10-20T12:43:11.538Z,99.99
2017-10-20T12:44:11.854Z,99.99
2017-10-20T12:45:11.507Z,99.99
2017-10-20T12:46:11.506Z,99.99
2017-10-20T12:47:11.500Z,99.99
2017-10-20T12:48:11.498Z,99.99
2017-10-20T12:49:11.845Z,99.99
2017-10-20T12:50:11.508Z,99.99
2017-10-20T12:51:11.486Z,99.99
2017-10-20T12:52:11.824Z,99.99
2017-10-20T12:53:11.498Z,99.99
2017-10-20T12:54:11.829Z,99.99